sensor_id;sensor_type;location;lat;lon;timestamp;P1;durP1;ratioP1;P2;durP2;ratioP2
72864;SDS011;61000;48.120;11.548;2023-04-19T00:01:12;15.77;;;10.68;;
72864;SDS011;61000;48.120;11.548;2023-04-19T00:03:41;16.80;;;10.18;;
72864;SDS011;61000;48.120;11.548;2023-04-19T00:06:08;15.02;;;10.70;;
72864;SDS011;61000;48.120;11.548;2023-04-19T00:08:38;15.00;;;10.27;;
72864;SDS011;61000;48.120;11.548;2023-04-19T00:11:05;15.38;;;10.25;;
72864;SDS011;61000;48.120;11.548;2023-04-19T00:13:32;15.93;;;10.32;;
72864;SDS011;61000;48.120;11.548;2023-04-19T00:15:59;15.75;;;10.95;;
72864;SDS011;61000;48.120;11.548;2023-04-19T00:18:26;13.27;;;10.05;;
72864;SDS011;61000;48.120;11.548;2023-04-19T00:20:54;15.80;;;10.27;;
72864;SDS011;61000;48.120;11.548;2023-04-19T00:23:21;13.77;;;9.90;;
72864;SDS011;61000;48.120;11.548;2023-04-19T00:25:49;16.65;;;11.13;;
72864;SDS011;61000;48.120;11.548;2023-04-19T00:28:16;16.08;;;10.75;;
72864;SDS011;61000;48.120;11.548;2023-04-19T00:30:43;16.70;;;10.85;;
72864;SDS011;61000;48.120;11.548;2023-04-19T00:33:10;14.98;;;10.65;;
72864;SDS011;61000;48.120;11.548;2023-04-19T00:35:38;17.85;;;11.20;;
72864;SDS011;61000;48.120;11.548;2023-04-19T00:38:07;18.15;;;10.93;;
72864;SDS011;61000;48.120;11.548;2023-04-19T00:40:34;19.00;;;12.32;;
72864;SDS011;61000;48.120;11.548;2023-04-19T00:43:03;16.05;;;10.90;;
72864;SDS011;61000;48.120;11.548;2023-04-19T00:45:30;17.42;;;10.85;;
72864;SDS011;61000;48.120;11.548;2023-04-19T00:47:59;14.15;;;10.70;;
72864;SDS011;61000;48.120;11.548;2023-04-19T00:50:26;14.25;;;10.52;;
72864;SDS011;61000;48.120;11.548;2023-04-19T00:52:55;15.35;;;11.00;;
72864;SDS011;61000;48.120;11.548;2023-04-19T00:55:25;14.82;;;10.52;;
72864;SDS011;61000;48.120;11.548;2023-04-19T00:57:52;14.18;;;10.02;;
72864;SDS011;61000;48.120;11.548;2023-04-19T01:00:19;17.15;;;11.60;;
72864;SDS011;61000;48.120;11.548;2023-04-19T01:02:46;15.50;;;11.00;;
72864;SDS011;61000;48.120;11.548;2023-04-19T01:05:13;16.05;;;10.90;;
72864;SDS011;61000;48.120;11.548;2023-04-19T01:07:41;15.88;;;11.40;;
72864;SDS011;61000;48.120;11.548;2023-04-19T01:10:08;16.23;;;11.73;;
72864;SDS011;61000;48.120;11.548;2023-04-19T01:12:36;16.92;;;11.80;;
72864;SDS011;61000;48.120;11.548;2023-04-19T01:15:04;15.95;;;11.35;;
72864;SDS011;61000;48.120;11.548;2023-04-19T01:17:32;16.30;;;12.00;;
72864;SDS011;61000;48.120;11.548;2023-04-19T01:19:59;18.10;;;11.55;;
72864;SDS011;61000;48.120;11.548;2023-04-19T01:22:30;17.85;;;11.65;;
72864;SDS011;61000;48.120;11.548;2023-04-19T01:24:57;15.65;;;11.35;;
72864;SDS011;61000;48.120;11.548;2023-04-19T01:27:24;15.75;;;12.07;;
72864;SDS011;61000;48.120;11.548;2023-04-19T01:29:51;15.32;;;10.93;;
72864;SDS011;61000;48.120;11.548;2023-04-19T01:32:17;18.02;;;12.63;;
72864;SDS011;61000;48.120;11.548;2023-04-19T01:34:44;16.92;;;12.55;;
72864;SDS011;61000;48.120;11.548;2023-04-19T01:37:11;19.08;;;12.30;;
72864;SDS011;61000;48.120;11.548;2023-04-19T01:39:41;17.70;;;11.75;;
72864;SDS011;61000;48.120;11.548;2023-04-19T01:42:08;20.02;;;12.63;;
72864;SDS011;61000;48.120;11.548;2023-04-19T01:44:35;18.27;;;12.93;;
72864;SDS011;61000;48.120;11.548;2023-04-19T01:47:02;17.00;;;12.00;;
72864;SDS011;61000;48.120;11.548;2023-04-19T01:49:31;19.20;;;13.30;;
72864;SDS011;61000;48.120;11.548;2023-04-19T01:51:58;18.73;;;12.75;;
72864;SDS011;61000;48.120;11.548;2023-04-19T01:54:25;18.85;;;13.50;;
72864;SDS011;61000;48.120;11.548;2023-04-19T01:56:53;17.10;;;12.35;;
72864;SDS011;61000;48.120;11.548;2023-04-19T01:59:21;19.52;;;13.27;;
72864;SDS011;61000;48.120;11.548;2023-04-19T02:01:49;20.83;;;13.82;;
72864;SDS011;61000;48.120;11.548;2023-04-19T02:04:17;22.17;;;14.52;;
72864;SDS011;61000;48.120;11.548;2023-04-19T02:06:45;23.08;;;13.20;;
72864;SDS011;61000;48.120;11.548;2023-04-19T02:09:11;23.52;;;14.90;;
72864;SDS011;61000;48.120;11.548;2023-04-19T02:11:40;23.55;;;14.93;;
72864;SDS011;61000;48.120;11.548;2023-04-19T02:14:09;21.83;;;14.88;;
72864;SDS011;61000;48.120;11.548;2023-04-19T02:16:36;23.10;;;15.27;;
72864;SDS011;61000;48.120;11.548;2023-04-19T02:19:02;22.42;;;14.73;;
72864;SDS011;61000;48.120;11.548;2023-04-19T02:21:31;24.35;;;16.65;;
72864;SDS011;61000;48.120;11.548;2023-04-19T02:23:58;27.40;;;16.83;;
72864;SDS011;61000;48.120;11.548;2023-04-19T02:26:25;25.55;;;15.95;;
72864;SDS011;61000;48.120;11.548;2023-04-19T02:28:52;23.75;;;16.15;;
72864;SDS011;61000;48.120;11.548;2023-04-19T02:31:20;25.90;;;16.83;;
72864;SDS011;61000;48.120;11.548;2023-04-19T02:33:47;25.27;;;16.27;;
72864;SDS011;61000;48.120;11.548;2023-04-19T02:36:14;24.02;;;16.35;;
72864;SDS011;61000;48.120;11.548;2023-04-19T02:38:41;26.67;;;17.92;;
72864;SDS011;61000;48.120;11.548;2023-04-19T02:41:08;26.63;;;16.50;;
72864;SDS011;61000;48.120;11.548;2023-04-19T02:43:37;24.75;;;15.30;;
72864;SDS011;61000;48.120;11.548;2023-04-19T02:46:04;24.63;;;16.38;;
72864;SDS011;61000;48.120;11.548;2023-04-19T02:48:32;29.55;;;18.33;;
72864;SDS011;61000;48.120;11.548;2023-04-19T02:50:59;28.83;;;18.35;;
72864;SDS011;61000;48.120;11.548;2023-04-19T02:53:26;28.63;;;18.50;;
72864;SDS011;61000;48.120;11.548;2023-04-19T02:55:54;27.55;;;18.05;;
72864;SDS011;61000;48.120;11.548;2023-04-19T02:58:20;28.92;;;18.55;;
72864;SDS011;61000;48.120;11.548;2023-04-19T03:00:59;29.35;;;17.60;;
72864;SDS011;61000;48.120;11.548;2023-04-19T03:03:26;27.98;;;18.38;;
72864;SDS011;61000;48.120;11.548;2023-04-19T03:05:54;27.35;;;18.67;;
72864;SDS011;61000;48.120;11.548;2023-04-19T03:08:21;31.67;;;18.95;;
72864;SDS011;61000;48.120;11.548;2023-04-19T03:10:48;32.10;;;19.48;;
72864;SDS011;61000;48.120;11.548;2023-04-19T03:13:15;36.60;;;20.88;;
72864;SDS011;61000;48.120;11.548;2023-04-19T03:15:42;31.88;;;19.42;;
72864;SDS011;61000;48.120;11.548;2023-04-19T03:18:09;34.80;;;20.27;;
72864;SDS011;61000;48.120;11.548;2023-04-19T03:20:39;31.50;;;20.10;;
72864;SDS011;61000;48.120;11.548;2023-04-19T03:23:07;31.33;;;20.65;;
72864;SDS011;61000;48.120;11.548;2023-04-19T03:25:35;32.40;;;19.77;;
72864;SDS011;61000;48.120;11.548;2023-04-19T03:28:19;35.95;;;21.90;;
72864;SDS011;61000;48.120;11.548;2023-04-19T03:31:05;36.25;;;22.45;;
72864;SDS011;61000;48.120;11.548;2023-04-19T03:33:32;37.17;;;21.50;;
72864;SDS011;61000;48.120;11.548;2023-04-19T03:35:59;35.47;;;21.92;;
72864;SDS011;61000;48.120;11.548;2023-04-19T03:38:27;35.05;;;21.65;;
72864;SDS011;61000;48.120;11.548;2023-04-19T03:40:54;38.53;;;23.52;;
72864;SDS011;61000;48.120;11.548;2023-04-19T03:43:24;42.65;;;23.40;;
72864;SDS011;61000;48.120;11.548;2023-04-19T03:45:51;42.40;;;24.05;;
72864;SDS011;61000;48.120;11.548;2023-04-19T03:48:18;36.83;;;23.00;;
72864;SDS011;61000;48.120;11.548;2023-04-19T03:50:45;37.80;;;22.67;;
72864;SDS011;61000;48.120;11.548;2023-04-19T03:53:14;36.58;;;22.88;;
72864;SDS011;61000;48.120;11.548;2023-04-19T03:55:44;42.78;;;24.33;;
72864;SDS011;61000;48.120;11.548;2023-04-19T03:58:11;37.67;;;21.80;;
72864;SDS011;61000;48.120;11.548;2023-04-19T04:00:46;38.53;;;23.25;;
72864;SDS011;61000;48.120;11.548;2023-04-19T04:03:13;38.05;;;23.27;;
72864;SDS011;61000;48.120;11.548;2023-04-19T04:05:40;38.30;;;22.95;;
72864;SDS011;61000;48.120;11.548;2023-04-19T04:08:08;35.85;;;23.42;;
72864;SDS011;61000;48.120;11.548;2023-04-19T04:10:35;46.45;;;24.48;;
72864;SDS011;61000;48.120;11.548;2023-04-19T04:13:03;39.95;;;24.10;;
72864;SDS011;61000;48.120;11.548;2023-04-19T04:15:40;38.60;;;24.08;;
72864;SDS011;61000;48.120;11.548;2023-04-19T04:18:09;38.25;;;21.75;;
72864;SDS011;61000;48.120;11.548;2023-04-19T04:20:36;38.40;;;22.25;;
72864;SDS011;61000;48.120;11.548;2023-04-19T04:23:07;41.25;;;23.50;;
72864;SDS011;61000;48.120;11.548;2023-04-19T04:25:36;39.47;;;22.70;;
72864;SDS011;61000;48.120;11.548;2023-04-19T04:28:08;37.97;;;23.23;;
72864;SDS011;61000;48.120;11.548;2023-04-19T04:30:38;39.30;;;24.08;;
72864;SDS011;61000;48.120;11.548;2023-04-19T04:33:07;36.17;;;22.13;;
72864;SDS011;61000;48.120;11.548;2023-04-19T04:35:37;38.65;;;22.63;;
72864;SDS011;61000;48.120;11.548;2023-04-19T04:38:10;38.45;;;24.23;;
72864;SDS011;61000;48.120;11.548;2023-04-19T04:40:37;41.00;;;24.80;;
72864;SDS011;61000;48.120;11.548;2023-04-19T04:43:04;43.47;;;26.00;;
72864;SDS011;61000;48.120;11.548;2023-04-19T04:45:33;38.85;;;23.08;;
72864;SDS011;61000;48.120;11.548;2023-04-19T04:48:02;42.95;;;25.83;;
72864;SDS011;61000;48.120;11.548;2023-04-19T04:50:30;37.75;;;23.10;;
72864;SDS011;61000;48.120;11.548;2023-04-19T04:52:57;44.05;;;24.77;;
72864;SDS011;61000;48.120;11.548;2023-04-19T04:55:28;38.15;;;24.42;;
72864;SDS011;61000;48.120;11.548;2023-04-19T04:57:55;41.08;;;23.73;;
72864;SDS011;61000;48.120;11.548;2023-04-19T05:00:46;38.58;;;22.65;;
72864;SDS011;61000;48.120;11.548;2023-04-19T05:03:14;42.63;;;24.98;;
72864;SDS011;61000;48.120;11.548;2023-04-19T05:05:47;41.13;;;24.50;;
72864;SDS011;61000;48.120;11.548;2023-04-19T05:08:15;39.33;;;23.50;;
72864;SDS011;61000;48.120;11.548;2023-04-19T05:10:43;45.70;;;25.88;;
72864;SDS011;61000;48.120;11.548;2023-04-19T05:13:11;40.92;;;23.83;;
72864;SDS011;61000;48.120;11.548;2023-04-19T05:15:39;43.20;;;23.70;;
72864;SDS011;61000;48.120;11.548;2023-04-19T05:18:08;43.85;;;23.73;;
72864;SDS011;61000;48.120;11.548;2023-04-19T05:20:35;44.50;;;25.45;;
72864;SDS011;61000;48.120;11.548;2023-04-19T05:23:09;41.30;;;23.73;;
72864;SDS011;61000;48.120;11.548;2023-04-19T05:25:36;41.28;;;24.25;;
72864;SDS011;61000;48.120;11.548;2023-04-19T05:28:04;44.90;;;24.27;;
72864;SDS011;61000;48.120;11.548;2023-04-19T05:30:39;44.88;;;25.67;;
72864;SDS011;61000;48.120;11.548;2023-04-19T05:33:06;44.28;;;25.50;;
72864;SDS011;61000;48.120;11.548;2023-04-19T05:35:34;42.38;;;24.15;;
72864;SDS011;61000;48.120;11.548;2023-04-19T05:38:01;46.72;;;25.75;;
72864;SDS011;61000;48.120;11.548;2023-04-19T05:40:28;54.10;;;27.98;;
72864;SDS011;61000;48.120;11.548;2023-04-19T05:42:57;46.00;;;25.55;;
72864;SDS011;61000;48.120;11.548;2023-04-19T05:45:24;42.72;;;24.52;;
72864;SDS011;61000;48.120;11.548;2023-04-19T05:47:52;42.30;;;24.95;;
72864;SDS011;61000;48.120;11.548;2023-04-19T05:50:40;48.55;;;25.27;;
72864;SDS011;61000;48.120;11.548;2023-04-19T05:53:27;46.10;;;26.13;;
72864;SDS011;61000;48.120;11.548;2023-04-19T05:55:55;42.83;;;24.77;;
72864;SDS011;61000;48.120;11.548;2023-04-19T05:58:22;43.42;;;22.98;;
72864;SDS011;61000;48.120;11.548;2023-04-19T06:00:50;41.15;;;24.38;;
72864;SDS011;61000;48.120;11.548;2023-04-19T06:03:18;38.13;;;23.08;;
72864;SDS011;61000;48.120;11.548;2023-04-19T06:05:48;36.22;;;21.83;;
72864;SDS011;61000;48.120;11.548;2023-04-19T06:08:16;35.08;;;21.00;;
72864;SDS011;61000;48.120;11.548;2023-04-19T06:10:43;41.20;;;22.65;;
72864;SDS011;61000;48.120;11.548;2023-04-19T06:13:12;46.95;;;24.23;;
72864;SDS011;61000;48.120;11.548;2023-04-19T06:15:40;44.63;;;23.88;;
72864;SDS011;61000;48.120;11.548;2023-04-19T06:18:07;43.92;;;23.00;;
72864;SDS011;61000;48.120;11.548;2023-04-19T06:20:35;43.63;;;23.42;;
72864;SDS011;61000;48.120;11.548;2023-04-19T06:23:03;38.45;;;22.23;;
72864;SDS011;61000;48.120;11.548;2023-04-19T06:25:31;41.65;;;22.27;;
72864;SDS011;61000;48.120;11.548;2023-04-19T06:27:58;42.13;;;19.92;;
72864;SDS011;61000;48.120;11.548;2023-04-19T06:30:27;43.65;;;21.80;;
72864;SDS011;61000;48.120;11.548;2023-04-19T06:32:54;39.63;;;21.60;;
72864;SDS011;61000;48.120;11.548;2023-04-19T06:35:21;36.60;;;20.85;;
72864;SDS011;61000;48.120;11.548;2023-04-19T06:37:49;37.20;;;21.27;;
72864;SDS011;61000;48.120;11.548;2023-04-19T06:40:17;37.08;;;21.80;;
72864;SDS011;61000;48.120;11.548;2023-04-19T06:42:44;36.03;;;20.70;;
72864;SDS011;61000;48.120;11.548;2023-04-19T06:45:13;38.80;;;21.70;;
72864;SDS011;61000;48.120;11.548;2023-04-19T06:47:40;34.90;;;20.95;;
72864;SDS011;61000;48.120;11.548;2023-04-19T06:50:07;36.33;;;20.45;;
72864;SDS011;61000;48.120;11.548;2023-04-19T06:52:35;32.08;;;19.63;;
72864;SDS011;61000;48.120;11.548;2023-04-19T06:55:02;37.15;;;21.25;;
72864;SDS011;61000;48.120;11.548;2023-04-19T06:57:30;33.33;;;19.85;;
72864;SDS011;61000;48.120;11.548;2023-04-19T06:59:58;35.22;;;20.67;;
72864;SDS011;61000;48.120;11.548;2023-04-19T07:02:25;35.50;;;18.77;;
72864;SDS011;61000;48.120;11.548;2023-04-19T07:04:52;34.95;;;19.30;;
72864;SDS011;61000;48.120;11.548;2023-04-19T07:07:19;38.50;;;19.85;;
72864;SDS011;61000;48.120;11.548;2023-04-19T07:09:46;30.98;;;18.27;;
72864;SDS011;61000;48.120;11.548;2023-04-19T07:12:12;36.17;;;20.40;;
72864;SDS011;61000;48.120;11.548;2023-04-19T07:14:41;33.35;;;18.52;;
72864;SDS011;61000;48.120;11.548;2023-04-19T07:17:08;34.03;;;19.63;;
72864;SDS011;61000;48.120;11.548;2023-04-19T07:19:34;31.92;;;18.85;;
72864;SDS011;61000;48.120;11.548;2023-04-19T07:22:01;34.17;;;19.67;;
72864;SDS011;61000;48.120;11.548;2023-04-19T07:24:30;34.70;;;19.77;;
72864;SDS011;61000;48.120;11.548;2023-04-19T07:26:57;31.63;;;20.00;;
72864;SDS011;61000;48.120;11.548;2023-04-19T07:29:24;33.38;;;19.70;;
72864;SDS011;61000;48.120;11.548;2023-04-19T07:31:52;35.05;;;20.65;;
72864;SDS011;61000;48.120;11.548;2023-04-19T07:34:19;34.78;;;20.70;;
72864;SDS011;61000;48.120;11.548;2023-04-19T07:36:46;30.35;;;18.17;;
72864;SDS011;61000;48.120;11.548;2023-04-19T07:39:13;31.60;;;18.15;;
72864;SDS011;61000;48.120;11.548;2023-04-19T07:41:40;33.10;;;19.38;;
72864;SDS011;61000;48.120;11.548;2023-04-19T07:44:07;31.77;;;19.33;;
72864;SDS011;61000;48.120;11.548;2023-04-19T07:46:35;33.13;;;19.95;;
72864;SDS011;61000;48.120;11.548;2023-04-19T07:49:03;34.88;;;21.48;;
72864;SDS011;61000;48.120;11.548;2023-04-19T07:51:30;31.25;;;19.27;;
72864;SDS011;61000;48.120;11.548;2023-04-19T07:53:57;32.40;;;19.70;;
72864;SDS011;61000;48.120;11.548;2023-04-19T07:56:25;34.25;;;20.25;;
72864;SDS011;61000;48.120;11.548;2023-04-19T07:58:51;32.15;;;18.00;;
72864;SDS011;61000;48.120;11.548;2023-04-19T08:01:18;27.08;;;17.80;;
72864;SDS011;61000;48.120;11.548;2023-04-19T08:03:45;30.73;;;19.85;;
72864;SDS011;61000;48.120;11.548;2023-04-19T08:06:14;31.17;;;18.58;;
72864;SDS011;61000;48.120;11.548;2023-04-19T08:08:41;33.65;;;19.63;;
72864;SDS011;61000;48.120;11.548;2023-04-19T08:11:08;31.70;;;18.38;;
72864;SDS011;61000;48.120;11.548;2023-04-19T08:13:35;27.27;;;17.00;;
72864;SDS011;61000;48.120;11.548;2023-04-19T08:16:02;26.38;;;17.75;;
72864;SDS011;61000;48.120;11.548;2023-04-19T08:18:30;30.20;;;18.17;;
72864;SDS011;61000;48.120;11.548;2023-04-19T08:20:56;29.30;;;17.30;;
72864;SDS011;61000;48.120;11.548;2023-04-19T08:23:27;26.10;;;16.02;;
72864;SDS011;61000;48.120;11.548;2023-04-19T08:25:54;26.25;;;17.58;;
72864;SDS011;61000;48.120;11.548;2023-04-19T08:28:21;26.15;;;16.90;;
72864;SDS011;61000;48.120;11.548;2023-04-19T08:30:50;26.65;;;17.15;;
72864;SDS011;61000;48.120;11.548;2023-04-19T08:33:17;26.55;;;17.52;;
72864;SDS011;61000;48.120;11.548;2023-04-19T08:35:44;24.65;;;16.75;;
72864;SDS011;61000;48.120;11.548;2023-04-19T08:38:11;23.88;;;16.45;;
72864;SDS011;61000;48.120;11.548;2023-04-19T08:40:40;27.55;;;17.48;;
72864;SDS011;61000;48.120;11.548;2023-04-19T08:43:11;24.30;;;16.42;;
72864;SDS011;61000;48.120;11.548;2023-04-19T08:45:38;27.23;;;18.13;;
72864;SDS011;61000;48.120;11.548;2023-04-19T08:48:07;23.98;;;16.63;;
72864;SDS011;61000;48.120;11.548;2023-04-19T08:50:35;28.42;;;17.60;;
72864;SDS011;61000;48.120;11.548;2023-04-19T08:53:06;25.42;;;16.92;;
72864;SDS011;61000;48.120;11.548;2023-04-19T08:55:33;26.13;;;16.40;;
72864;SDS011;61000;48.120;11.548;2023-04-19T08:58:03;26.30;;;16.80;;
72864;SDS011;61000;48.120;11.548;2023-04-19T09:00:30;30.13;;;17.40;;
72864;SDS011;61000;48.120;11.548;2023-04-19T09:02:58;29.75;;;18.13;;
72864;SDS011;61000;48.120;11.548;2023-04-19T09:05:25;24.98;;;16.27;;
72864;SDS011;61000;48.120;11.548;2023-04-19T09:07:52;27.95;;;17.67;;
72864;SDS011;61000;48.120;11.548;2023-04-19T09:10:19;29.33;;;16.63;;
72864;SDS011;61000;48.120;11.548;2023-04-19T09:12:59;29.65;;;17.70;;
72864;SDS011;61000;48.120;11.548;2023-04-19T09:15:38;25.90;;;16.75;;
72864;SDS011;61000;48.120;11.548;2023-04-19T09:18:09;25.20;;;16.50;;
72864;SDS011;61000;48.120;11.548;2023-04-19T09:20:39;28.20;;;17.05;;
72864;SDS011;61000;48.120;11.548;2023-04-19T09:23:08;27.10;;;16.95;;
72864;SDS011;61000;48.120;11.548;2023-04-19T09:25:36;26.83;;;16.83;;
72864;SDS011;61000;48.120;11.548;2023-04-19T09:28:09;29.30;;;17.23;;
72864;SDS011;61000;48.120;11.548;2023-04-19T09:30:38;24.60;;;16.42;;
72864;SDS011;61000;48.120;11.548;2023-04-19T09:33:06;25.50;;;16.17;;
72864;SDS011;61000;48.120;11.548;2023-04-19T09:35:43;24.58;;;16.02;;
72864;SDS011;61000;48.120;11.548;2023-04-19T09:38:12;26.27;;;16.20;;
72864;SDS011;61000;48.120;11.548;2023-04-19T09:40:39;27.55;;;15.95;;
72864;SDS011;61000;48.120;11.548;2023-04-19T09:43:07;23.33;;;15.52;;
72864;SDS011;61000;48.120;11.548;2023-04-19T09:45:42;22.77;;;15.05;;
72864;SDS011;61000;48.120;11.548;2023-04-19T09:48:10;25.83;;;16.13;;
72864;SDS011;61000;48.120;11.548;2023-04-19T09:50:49;21.75;;;14.90;;
72864;SDS011;61000;48.120;11.548;2023-04-19T09:53:17;22.15;;;14.95;;
72864;SDS011;61000;48.120;11.548;2023-04-19T09:55:44;20.38;;;14.18;;
72864;SDS011;61000;48.120;11.548;2023-04-19T09:58:12;23.65;;;14.65;;
72864;SDS011;61000;48.120;11.548;2023-04-19T10:00:40;21.75;;;13.65;;
72864;SDS011;61000;48.120;11.548;2023-04-19T10:03:09;21.85;;;13.55;;
72864;SDS011;61000;48.120;11.548;2023-04-19T10:05:38;20.52;;;14.05;;
72864;SDS011;61000;48.120;11.548;2023-04-19T10:08:06;19.42;;;14.30;;
72864;SDS011;61000;48.120;11.548;2023-04-19T10:10:34;18.45;;;13.10;;
72864;SDS011;61000;48.120;11.548;2023-04-19T10:13:02;23.83;;;15.15;;
72864;SDS011;61000;48.120;11.548;2023-04-19T10:15:32;21.25;;;13.32;;
72864;SDS011;61000;48.120;11.548;2023-04-19T10:18:02;21.35;;;15.35;;
72864;SDS011;61000;48.120;11.548;2023-04-19T10:20:32;24.13;;;14.00;;
72864;SDS011;61000;48.120;11.548;2023-04-19T10:23:05;21.15;;;14.52;;
72864;SDS011;61000;48.120;11.548;2023-04-19T10:25:34;19.75;;;13.65;;
72864;SDS011;61000;48.120;11.548;2023-04-19T10:28:02;20.75;;;13.93;;
72864;SDS011;61000;48.120;11.548;2023-04-19T10:30:29;18.70;;;14.05;;
72864;SDS011;61000;48.120;11.548;2023-04-19T10:32:57;18.48;;;14.25;;
72864;SDS011;61000;48.120;11.548;2023-04-19T10:35:33;23.00;;;15.20;;
72864;SDS011;61000;48.120;11.548;2023-04-19T10:38:06;18.48;;;13.07;;
72864;SDS011;61000;48.120;11.548;2023-04-19T10:43:20;20.08;;;14.48;;
72864;SDS011;61000;48.120;11.548;2023-04-19T10:45:47;22.25;;;14.43;;
72864;SDS011;61000;48.120;11.548;2023-04-19T10:48:30;21.25;;;15.15;;
72864;SDS011;61000;48.120;11.548;2023-04-19T10:51:04;21.42;;;14.75;;
72864;SDS011;61000;48.120;11.548;2023-04-19T10:53:45;27.05;;;15.25;;
72864;SDS011;61000;48.120;11.548;2023-04-19T10:56:19;20.75;;;14.35;;
72864;SDS011;61000;48.120;11.548;2023-04-19T11:01:49;23.33;;;15.18;;
72864;SDS011;61000;48.120;11.548;2023-04-19T11:04:18;20.00;;;13.27;;
72864;SDS011;61000;48.120;11.548;2023-04-19T11:07:01;19.77;;;13.98;;
72864;SDS011;61000;48.120;11.548;2023-04-19T11:09:30;21.38;;;13.52;;
72864;SDS011;61000;48.120;11.548;2023-04-19T11:11:59;23.73;;;13.32;;
72864;SDS011;61000;48.120;11.548;2023-04-19T11:14:31;22.50;;;14.13;;
72864;SDS011;61000;48.120;11.548;2023-04-19T11:17:03;21.02;;;14.38;;
72864;SDS011;61000;48.120;11.548;2023-04-19T11:19:41;20.42;;;13.70;;
72864;SDS011;61000;48.120;11.548;2023-04-19T11:22:11;22.08;;;14.65;;
72864;SDS011;61000;48.120;11.548;2023-04-19T11:24:43;22.73;;;14.77;;
72864;SDS011;61000;48.120;11.548;2023-04-19T11:27:11;21.52;;;14.50;;
72864;SDS011;61000;48.120;11.548;2023-04-19T11:29:38;25.27;;;14.70;;
72864;SDS011;61000;48.120;11.548;2023-04-19T11:32:05;21.92;;;15.18;;
72864;SDS011;61000;48.120;11.548;2023-04-19T11:34:34;29.17;;;16.38;;
72864;SDS011;61000;48.120;11.548;2023-04-19T11:37:02;31.45;;;16.08;;
72864;SDS011;61000;48.120;11.548;2023-04-19T11:39:30;25.80;;;15.93;;
72864;SDS011;61000;48.120;11.548;2023-04-19T11:41:57;29.17;;;17.42;;
72864;SDS011;61000;48.120;11.548;2023-04-19T11:44:24;32.50;;;17.42;;
72864;SDS011;61000;48.120;11.548;2023-04-19T11:46:58;27.42;;;17.73;;
72864;SDS011;61000;48.120;11.548;2023-04-19T11:49:26;24.17;;;16.02;;
72864;SDS011;61000;48.120;11.548;2023-04-19T11:51:55;23.95;;;15.95;;
72864;SDS011;61000;48.120;11.548;2023-04-19T11:54:23;26.00;;;15.10;;
72864;SDS011;61000;48.120;11.548;2023-04-19T11:57:02;24.38;;;15.90;;
72864;SDS011;61000;48.120;11.548;2023-04-19T11:59:30;27.40;;;14.85;;
72864;SDS011;61000;48.120;11.548;2023-04-19T12:02:07;23.65;;;15.55;;
72864;SDS011;61000;48.120;11.548;2023-04-19T12:04:35;26.73;;;17.27;;
72864;SDS011;61000;48.120;11.548;2023-04-19T12:07:03;27.60;;;16.75;;
72864;SDS011;61000;48.120;11.548;2023-04-19T12:09:31;26.45;;;17.70;;
72864;SDS011;61000;48.120;11.548;2023-04-19T12:11:59;26.33;;;16.13;;
72864;SDS011;61000;48.120;11.548;2023-04-19T12:14:28;24.67;;;15.32;;
72864;SDS011;61000;48.120;11.548;2023-04-19T12:17:02;27.67;;;16.65;;
72864;SDS011;61000;48.120;11.548;2023-04-19T12:19:33;31.10;;;18.40;;
72864;SDS011;61000;48.120;11.548;2023-04-19T12:22:08;32.50;;;17.20;;
72864;SDS011;61000;48.120;11.548;2023-04-19T12:24:36;32.47;;;19.80;;
72864;SDS011;61000;48.120;11.548;2023-04-19T12:27:03;34.42;;;19.92;;
72864;SDS011;61000;48.120;11.548;2023-04-19T12:29:32;32.60;;;17.88;;
72864;SDS011;61000;48.120;11.548;2023-04-19T12:31:59;34.85;;;20.75;;
72864;SDS011;61000;48.120;11.548;2023-04-19T12:34:28;29.27;;;17.45;;
72864;SDS011;61000;48.120;11.548;2023-04-19T12:36:55;29.00;;;18.23;;
72864;SDS011;61000;48.120;11.548;2023-04-19T12:39:22;32.45;;;19.02;;
72864;SDS011;61000;48.120;11.548;2023-04-19T12:41:50;39.80;;;22.20;;
72864;SDS011;61000;48.120;11.548;2023-04-19T12:44:17;35.30;;;19.75;;
72864;SDS011;61000;48.120;11.548;2023-04-19T12:46:46;33.60;;;19.92;;
72864;SDS011;61000;48.120;11.548;2023-04-19T12:49:13;33.08;;;19.00;;
72864;SDS011;61000;48.120;11.548;2023-04-19T12:51:40;24.75;;;15.27;;
72864;SDS011;61000;48.120;11.548;2023-04-19T12:54:07;26.55;;;15.88;;
72864;SDS011;61000;48.120;11.548;2023-04-19T12:56:35;22.73;;;15.10;;
72864;SDS011;61000;48.120;11.548;2023-04-19T12:59:02;26.27;;;15.90;;
72864;SDS011;61000;48.120;11.548;2023-04-19T13:01:29;27.98;;;15.70;;
72864;SDS011;61000;48.120;11.548;2023-04-19T13:03:58;28.50;;;15.68;;
72864;SDS011;61000;48.120;11.548;2023-04-19T13:06:25;22.85;;;14.60;;
72864;SDS011;61000;48.120;11.548;2023-04-19T13:08:52;25.83;;;14.57;;
72864;SDS011;61000;48.120;11.548;2023-04-19T13:11:20;23.75;;;15.40;;
72864;SDS011;61000;48.120;11.548;2023-04-19T13:13:50;26.83;;;15.48;;
72864;SDS011;61000;48.120;11.548;2023-04-19T13:27:07;20.65;;;12.35;;
72864;SDS011;61000;48.120;11.548;2023-04-19T13:29:34;20.15;;;13.07;;
72864;SDS011;61000;48.120;11.548;2023-04-19T13:32:01;22.98;;;13.02;;
72864;SDS011;61000;48.120;11.548;2023-04-19T13:34:31;22.60;;;13.75;;
72864;SDS011;61000;48.120;11.548;2023-04-19T13:36:58;23.23;;;13.10;;
72864;SDS011;61000;48.120;11.548;2023-04-19T13:39:28;26.25;;;12.48;;
72864;SDS011;61000;48.120;11.548;2023-04-19T13:41:55;19.83;;;12.35;;
72864;SDS011;61000;48.120;11.548;2023-04-19T13:44:23;18.52;;;11.25;;
72864;SDS011;61000;48.120;11.548;2023-04-19T13:46:50;18.15;;;11.10;;
72864;SDS011;61000;48.120;11.548;2023-04-19T13:49:17;14.68;;;10.82;;
72864;SDS011;61000;48.120;11.548;2023-04-19T13:51:44;14.38;;;9.68;;
72864;SDS011;61000;48.120;11.548;2023-04-19T13:54:11;12.27;;;8.68;;
72864;SDS011;61000;48.120;11.548;2023-04-19T13:56:41;12.95;;;8.40;;
72864;SDS011;61000;48.120;11.548;2023-04-19T13:59:08;13.98;;;8.48;;
72864;SDS011;61000;48.120;11.548;2023-04-19T14:01:37;11.48;;;7.93;;
72864;SDS011;61000;48.120;11.548;2023-04-19T14:04:04;12.63;;;8.30;;
72864;SDS011;61000;48.120;11.548;2023-04-19T14:06:31;9.20;;;5.65;;
72864;SDS011;61000;48.120;11.548;2023-04-19T14:08:58;8.88;;;5.82;;
72864;SDS011;61000;48.120;11.548;2023-04-19T14:11:25;9.45;;;6.57;;
72864;SDS011;61000;48.120;11.548;2023-04-19T14:13:52;13.52;;;7.03;;
72864;SDS011;61000;48.120;11.548;2023-04-19T14:16:19;11.48;;;7.00;;
72864;SDS011;61000;48.120;11.548;2023-04-19T14:18:49;5.45;;;4.07;;
72864;SDS011;61000;48.120;11.548;2023-04-19T14:21:16;6.63;;;4.70;;
72864;SDS011;61000;48.120;11.548;2023-04-19T14:23:43;6.70;;;4.05;;
72864;SDS011;61000;48.120;11.548;2023-04-19T14:26:12;9.82;;;4.22;;
72864;SDS011;61000;48.120;11.548;2023-04-19T14:28:39;5.60;;;3.80;;
72864;SDS011;61000;48.120;11.548;2023-04-19T14:31:06;6.60;;;4.13;;
72864;SDS011;61000;48.120;11.548;2023-04-19T14:33:33;4.80;;;3.47;;
72864;SDS011;61000;48.120;11.548;2023-04-19T14:36:02;6.03;;;4.20;;